Saturday, July 21, 2018, 10:52 PM EDT
Back to Local

KPQI, Presque Isle

Location: Presque Isle, ME, United States Lat: 46.683
Local Time: 10:52 PM EDT ( 2:52 GMT) Lon: -68.05
Time Zone: US/Eastern Elev: 534 ft

Show me the last for .
Show Decoded

2018-07-21 21:56 METAR KPQI 220156Z AUTO 00000KT 10SM CLR 18/16 A3015 RMK AO2 SLP246 T01830156 =
2018-07-21 20:56 METAR KPQI 220056Z AUTO 00000KT 10SM CLR 21/17 A3014 RMK AO2 SLP241 T02110167 =
2018-07-21 19:56 METAR KPQI 212356Z AUTO 17004KT 10SM CLR 25/17 A3012 RMK AO2 SLP235 T02500167
                 10294 20250 55002 =
2018-07-21 18:56 METAR KPQI 212256Z AUTO 16004KT 10SM CLR 28/14 A3012 RMK AO2 SLP233 T02780144 =
2018-07-21 17:56 METAR KPQI 212156Z AUTO 16006KT 10SM CLR 29/14 A3012 RMK AO2 SLP233 T02890139 =
2018-07-21 16:56 METAR KPQI 212056Z AUTO 18003KT 10SM CLR 29/13 A3013 RMK AO2 SLP236 T02890133
                 56010 =
2018-07-21 15:56 METAR KPQI 211956Z AUTO VRB06KT 10SM CLR 29/14 A3013 RMK AO2 SLP238 T02890139 =
2018-07-21 14:56 METAR KPQI 211856Z AUTO 16006KT 10SM CLR 29/14 A3014 RMK AO2 SLP241 T02890139 =
2018-07-21 13:56 METAR KPQI 211756Z AUTO VRB04KT 9SM CLR 28/12 A3016 RMK AO2 SLP246 T02830117
                 10289 20194 56012 =
2018-07-21 12:56 METAR KPQI 211656Z AUTO 12007KT 10SM CLR 28/13 A3017 RMK AO2 SLP249 T02780133 =
2018-07-21 11:56 METAR KPQI 211556Z AUTO 00000KT 10SM CLR 27/14 A3018 RMK AO2 SLP253 T02720144 =
2018-07-21 10:56 METAR KPQI 211456Z AUTO 00000KT 10SM CLR 26/14 A3019 RMK AO2 SLP258 T02560144
                 58007 =
2018-07-21 09:56 METAR KPQI 211356Z AUTO VRB03KT 9SM CLR 24/16 A3020 RMK AO2 SLP260 T02440156 =
2018-07-21 08:56 METAR KPQI 211256Z AUTO VRB03KT 8SM CLR 22/16 A3021 RMK AO2 SLP263 T02220156 =
2018-07-21 07:56 METAR KPQI 211156Z AUTO 17003KT 10SM CLR 19/14 A3021 RMK AO2 SLP265 T01940144
                 10200 20150 53006 =
2018-07-21 06:56 METAR KPQI 211056Z AUTO 00000KT 10SM CLR 17/14 A3020 RMK AO2 SLP263 T01670144 =
2018-07-21 05:56 METAR KPQI 210956Z AUTO 00000KT 10SM CLR 15/14 A3019 RMK AO2 SLP260 T01500139 =
2018-07-21 04:56 METAR KPQI 210856Z AUTO 00000KT 10SM CLR 16/14 A3019 RMK AO2 SLP259 T01610139
                 53008 =
2018-07-21 03:56 METAR KPQI 210756Z AUTO 00000KT 10SM CLR 16/14 A3018 RMK AO2 SLP256 T01560139 =
2018-07-21 02:56 METAR KPQI 210656Z AUTO 00000KT 10SM CLR 17/14 A3017 RMK AO2 SLP252 T01670139 =
2018-07-21 01:56 METAR KPQI 210556Z AUTO 00000KT 10SM CLR 17/15 A3017 RMK AO2 SLP250 T01670150
                 10261 20167 50002 =
2018-07-21 00:56 METAR KPQI 210456Z AUTO 00000KT 10SM CLR 17/15 A3017 RMK AO2 SLP251 T01720150
                 403060106 =
2018-07-20 23:56 METAR KPQI 210356Z AUTO 00000KT 10SM CLR 18/15 A3017 RMK AO2 SLP251 T01780150 =
2018-07-20 22:56 METAR KPQI 210256Z AUTO 20003KT 10SM CLR 18/16 A3016 RMK AO2 SLP250 T01830161
                 51010 =

Support USWX by starting your Amazon purchase here.